Time;durP1;ratioP1;P1;durP2;ratioP2;P2;SDS_P1;SDS_P2;PMS_P1;PMS_P2;Temp;Humidity;BMP_temperature;BMP_pressure;BME280_temperature;BME280_humidity;BME280_pressure;Samples;Min_cycle;Max_cycle;Signal;HPM_P1;HPM_P2
2022/04/05 00:02:08;;;;;;;22.77;3.55;;;;;;;6.52;100.00;100182.78;4965997;28;20430;-77
2022/04/05 00:04:33;;;;;;;17.48;3.22;;;;;;;6.52;100.00;100199.66;4948586;28;20050;-76
2022/04/05 00:06:58;;;;;;;18.23;3.50;;;;;;;6.52;100.00;100177.44;4967699;28;20037;-76
2022/04/05 00:09:24;;;;;;;15.25;3.17;;;;;;;6.54;100.00;100180.75;4915870;28;20081;-77
2022/04/05 00:11:49;;;;;;;22.25;3.10;;;;;;;6.50;100.00;100179.50;4966094;28;20048;-77
2022/04/05 00:14:15;;;;;;;18.30;3.35;;;;;;;6.52;100.00;100194.31;4952404;28;20120;-78
2022/04/05 00:16:40;;;;;;;15.20;2.35;;;;;;;6.51;100.00;100199.88;4952254;28;20045;-78
2022/04/05 00:19:06;;;;;;;12.10;2.63;;;;;;;6.46;100.00;100179.09;4966968;28;20038;-77
2022/04/05 00:21:31;;;;;;;26.63;3.80;;;;;;;6.50;100.00;100195.56;4953767;28;20541;-78
2022/04/05 00:23:57;;;;;;;29.00;4.32;;;;;;;6.48;100.00;100197.59;4968311;28;20488;-78
2022/04/05 00:26:22;;;;;;;16.23;3.53;;;;;;;6.49;100.00;100204.59;4949721;28;20073;-78
2022/04/05 00:28:48;;;;;;;16.35;3.35;;;;;;;6.49;100.00;100216.13;4964320;28;20054;-78
2022/04/05 00:31:13;;;;;;;21.63;5.07;;;;;;;6.49;100.00;100215.31;4954121;28;20600;-77
2022/04/05 00:33:39;;;;;;;18.75;3.70;;;;;;;6.53;100.00;100217.41;4973992;28;20474;-77
2022/04/05 00:36:05;;;;;;;49.22;12.68;;;;;;;6.54;100.00;100220.88;4977298;28;20095;-77
2022/04/05 00:38:30;;;;;;;45.10;14.68;;;;;;;6.55;100.00;100209.16;4958163;28;20056;-77
2022/04/05 00:40:56;;;;;;;40.28;12.15;;;;;;;6.59;100.00;100221.09;4969934;28;20037;-77
2022/04/05 00:43:21;;;;;;;32.05;7.05;;;;;;;6.58;100.00;100219.47;4948832;28;20084;-77
2022/04/05 00:45:47;;;;;;;25.15;5.47;;;;;;;6.55;100.00;100214.50;4950109;28;20041;-77
2022/04/05 00:48:26;;;;;;;29.98;9.43;;;;;;;6.58;100.00;100219.47;4947815;28;20077;-77
2022/04/05 00:50:51;;;;;;;38.28;9.98;;;;;;;6.54;100.00;100215.53;4966641;28;20117;-76
2022/04/05 00:53:17;;;;;;;29.95;7.30;;;;;;;6.53;100.00;100214.72;4958809;28;20117;-76
2022/04/05 00:55:43;;;;;;;38.03;12.48;;;;;;;6.57;100.00;100218.63;4942992;28;20136;-76
2022/04/05 00:58:09;;;;;;;54.15;19.27;;;;;;;6.64;100.00;100218.66;4967538;28;20044;-76
2022/04/05 01:00:35;;;;;;;31.35;7.93;;;;;;;6.63;100.00;100206.28;4951521;28;20134;-76
2022/04/05 01:03:01;;;;;;;47.85;17.60;;;;;;;6.68;100.00;100227.91;4967736;28;20049;-75
2022/04/05 01:05:27;;;;;;;27.40;5.82;;;;;;;6.66;100.00;100227.28;4951654;28;20922;-76
2022/04/05 01:07:55;;;;;;;16.63;3.75;;;;;;;6.60;100.00;100223.59;4963448;28;20052;-76
2022/04/05 01:10:21;;;;;;;15.45;2.55;;;;;;;6.59;100.00;100237.16;4945377;28;20088;-76
2022/04/05 01:12:48;;;;;;;26.17;3.65;;;;;;;6.55;100.00;100236.72;4962079;28;20164;-76
2022/04/05 01:15:13;;;;;;;19.20;2.90;;;;;;;6.45;100.00;100231.75;4963941;28;20041;-75
2022/04/05 01:17:39;;;;;;;23.20;4.07;;;;;;;6.45;100.00;100223.72;4947884;28;20520;-75
2022/04/05 01:20:05;;;;;;;27.30;3.70;;;;;;;6.45;100.00;100231.75;4969063;28;20060;-75
2022/04/05 01:22:31;;;;;;;22.77;2.97;;;;;;;6.41;100.00;100235.84;4950275;28;20728;-75
2022/04/05 01:24:56;;;;;;;23.80;4.78;;;;;;;6.37;100.00;100229.25;4963753;28;20034;-76
2022/04/05 01:27:27;;;;;;;18.08;3.08;;;;;;;6.37;100.00;100242.63;4946414;28;23035;-76
2022/04/05 01:29:53;;;;;;;21.73;4.03;;;;;;;6.34;100.00;100244.88;4965279;28;20041;-76
2022/04/05 01:32:18;;;;;;;41.70;10.55;;;;;;;6.39;100.00;100245.94;4947919;28;20044;-76
2022/04/05 01:34:44;;;;;;;27.98;5.28;;;;;;;6.37;100.00;100245.31;4963030;28;20682;-77
2022/04/05 01:37:10;;;;;;;25.70;5.45;;;;;;;6.39;100.00;100248.63;4950602;28;20038;-76
2022/04/05 01:39:37;;;;;;;45.45;11.88;;;;;;;6.37;100.00;100244.50;4945334;28;20055;-76
2022/04/05 01:42:12;;;;;;;26.77;6.20;;;;;;;6.32;100.00;100247.78;4949624;28;20040;-77
2022/04/05 01:44:38;;;;;;;48.97;11.38;;;;;;;6.27;100.00;100262.75;4938195;28;20072;-77
2022/04/05 01:47:09;;;;;;;37.33;10.52;;;;;;;6.21;100.00;100259.03;4968597;28;20887;-77
2022/04/05 01:49:35;;;;;;;36.28;7.72;;;;;;;6.14;100.00;100255.50;4951723;28;20080;-76
2022/04/05 01:52:00;;;;;;;42.42;13.73;;;;;;;6.12;100.00;100262.91;4968339;28;20528;-76
2022/04/05 01:54:26;;;;;;;39.63;9.50;;;;;;;6.10;100.00;100254.25;4940920;28;20041;-76
2022/04/05 01:56:52;;;;;;;31.70;8.75;;;;;;;6.10;100.00;100257.72;4969267;28;20048;-76
2022/04/05 01:59:20;;;;;;;57.72;16.23;;;;;;;6.13;100.00;100249.31;4970482;28;21785;-76
2022/04/05 02:01:45;;;;;;;60.97;18.02;;;;;;;6.18;100.00;100251.41;4953653;28;20041;-76
2022/04/05 02:04:12;;;;;;;65.15;19.52;;;;;;;6.19;100.00;100248.53;4957160;28;20128;-76
2022/04/05 02:06:39;;;;;;;49.33;18.38;;;;;;;6.21;100.00;100240.31;4946994;28;20050;-75
2022/04/05 02:09:04;;;;;;;27.38;6.53;;;;;;;6.19;100.00;100247.72;4974271;28;20044;-75
2022/04/05 02:11:30;;;;;;;35.53;6.97;;;;;;;6.17;100.00;100260.44;4952920;28;20045;-75
2022/04/05 02:13:56;;;;;;;33.97;8.32;;;;;;;6.10;100.00;100246.22;4954646;28;20040;-75
2022/04/05 02:16:21;;;;;;;28.73;5.13;;;;;;;6.11;100.00;100261.25;4966554;28;20375;-76
2022/04/05 02:18:46;;;;;;;32.45;7.30;;;;;;;6.10;100.00;100265.75;4965650;28;20130;-75
2022/04/05 02:21:12;;;;;;;39.45;7.40;;;;;;;6.08;100.00;100261.66;4957313;28;20107;-76
2022/04/05 02:23:38;;;;;;;66.93;22.25;;;;;;;6.14;100.00;100276.88;4940673;28;20062;-76
2022/04/05 02:26:04;;;;;;;61.15;17.27;;;;;;;6.21;100.00;100267.91;4950180;28;20045;-76
2022/04/05 02:28:29;;;;;;;50.53;13.73;;;;;;;6.17;100.00;100271.13;4951971;28;20073;-76
2022/04/05 02:30:55;;;;;;;44.88;11.10;;;;;;;6.22;100.00;100268.72;4967423;28;20056;-75
2022/04/05 02:33:20;;;;;;;52.03;14.27;;;;;;;6.17;100.00;100261.25;4957357;28;20050;-76
2022/04/05 02:35:46;;;;;;;52.92;18.05;;;;;;;6.16;100.00;100270.31;4966007;28;20042;-76
2022/04/05 02:38:11;;;;;;;56.65;16.15;;;;;;;6.18;100.00;100262.13;4968804;28;20399;-76
2022/04/05 02:40:37;;;;;;;77.57;29.27;;;;;;;6.16;100.00;100274.84;4939228;28;20647;-77
2022/04/05 02:43:03;;;;;;;48.08;17.40;;;;;;;6.16;100.00;100270.31;4967113;28;20050;-77
2022/04/05 02:45:30;;;;;;;39.60;11.13;;;;;;;6.12;100.00;100276.28;4949658;28;20104;-77
2022/04/05 02:47:55;;;;;;;45.03;14.40;;;;;;;6.13;100.00;100275.25;4967755;28;20095;-76
2022/04/05 02:50:21;;;;;;;41.42;10.30;;;;;;;6.11;100.00;100269.28;4952459;28;22293;-76
2022/04/05 02:52:47;;;;;;;39.03;11.52;;;;;;;6.14;100.00;100277.72;4953666;28;20795;-76
2022/04/05 02:55:12;;;;;;;69.68;19.77;;;;;;;6.19;100.00;100269.09;4933839;28;20058;-76
2022/04/05 02:57:39;;;;;;;50.72;12.05;;;;;;;6.16;100.00;100274.84;4966109;28;20480;-76
2022/04/05 03:00:07;;;;;;;36.72;9.02;;;;;;;6.14;100.00;100268.84;4953266;28;20030;-76
2022/04/05 03:02:34;;;;;;;43.33;12.93;;;;;;;6.09;100.00;100274.00;4938765;28;20057;-76
2022/04/05 03:05:01;;;;;;;51.05;10.20;;;;;;;6.04;100.00;100281.75;4953044;28;20390;-76
2022/04/05 03:07:27;;;;;;;38.42;8.27;;;;;;;6.05;100.00;100276.22;4954874;28;20054;-76
2022/04/05 03:09:52;;;;;;;40.00;13.25;;;;;;;6.05;100.00;100272.75;4966789;28;20040;-76
2022/04/05 03:12:18;;;;;;;46.83;14.80;;;;;;;6.03;100.00;100275.59;4952984;28;20164;-76
2022/04/05 03:14:45;;;;;;;58.35;20.58;;;;;;;6.05;100.00;100281.56;4971177;28;20498;-76
2022/04/05 03:17:12;;;;;;;49.33;18.08;;;;;;;6.08;100.00;100277.69;4954063;28;20041;-77
2022/04/05 03:19:37;;;;;;;68.07;18.55;;;;;;;6.13;100.00;100280.59;4968750;28;20034;-76
2022/04/05 03:22:05;;;;;;;52.60;15.30;;;;;;;6.13;100.00;100285.94;4967668;28;20040;-76
2022/04/05 03:24:31;;;;;;;42.03;8.05;;;;;;;6.15;100.00;100290.06;4949899;28;20071;-76
2022/04/05 03:26:57;;;;;;;43.60;9.43;;;;;;;6.14;100.00;100293.78;4971871;28;20128;-76
2022/04/05 03:29:23;;;;;;;56.05;16.33;;;;;;;6.10;100.00;100286.31;4953616;28;20038;-75
2022/04/05 03:31:49;;;;;;;56.50;14.60;;;;;;;6.04;100.00;100281.75;4969896;28;20042;-76
2022/04/05 03:34:14;;;;;;;37.75;8.23;;;;;;;5.97;100.00;100287.91;4953441;28;20061;-76
2022/04/05 03:36:43;;;;;;;46.03;9.73;;;;;;;5.95;100.00;100284.59;4952798;28;20061;-76
2022/04/05 03:39:09;;;;;;;34.85;6.88;;;;;;;5.87;100.00;100292.75;4962700;28;20045;-76
2022/04/05 03:41:34;;;;;;;46.50;9.57;;;;;;;5.85;100.00;100283.28;4958216;28;20127;-76
2022/04/05 03:43:59;;;;;;;28.50;4.20;;;;;;;5.80;100.00;100286.53;4952673;28;20041;-75
2022/04/05 03:46:25;;;;;;;36.65;5.22;;;;;;;5.77;100.00;100284.25;4952216;28;20113;-76
2022/04/05 03:48:50;;;;;;;25.48;3.30;;;;;;;5.76;100.00;100290.63;4968919;28;20099;-77
2022/04/05 03:51:16;;;;;;;29.08;3.05;;;;;;;5.70;100.00;100292.22;4937697;28;20943;-75
2022/04/05 03:53:41;;;;;;;23.77;3.00;;;;;;;5.71;100.00;100291.19;4968526;28;20037;-75
2022/04/05 03:56:06;;;;;;;32.03;4.00;;;;;;;5.79;100.00;100290.25;4949080;28;20163;-76
2022/04/05 03:58:32;;;;;;;25.17;3.17;;;;;;;5.79;100.00;100295.59;4963507;28;21767;-75
2022/04/05 04:00:57;;;;;;;20.30;3.25;;;;;;;5.78;100.00;100299.25;4969295;28;20038;-75
2022/04/05 04:03:23;;;;;;;26.38;3.45;;;;;;;5.83;100.00;100302.19;4930988;28;20101;-76
2022/04/05 04:05:48;;;;;;;23.20;4.03;;;;;;;5.82;100.00;100299.69;4962246;28;20038;-75
2022/04/05 04:08:14;;;;;;;36.33;3.45;;;;;;;5.87;100.00;100310.63;4947918;28;20064;-75
2022/04/05 04:10:39;;;;;;;32.45;3.92;;;;;;;5.84;100.00;100301.16;4967975;28;20053;-75
2022/04/05 04:13:05;;;;;;;33.80;3.78;;;;;;;5.82;100.00;100300.50;4948627;28;20109;-75
2022/04/05 04:15:30;;;;;;;24.00;3.08;;;;;;;5.79;100.00;100290.25;4968427;28;20107;-76
2022/04/05 04:17:56;;;;;;;25.92;2.97;;;;;;;5.78;100.00;100288.56;4959355;28;20038;-76
2022/04/05 04:20:21;;;;;;;24.05;2.95;;;;;;;5.71;100.00;100298.38;4953924;28;20049;-76
2022/04/05 04:22:46;;;;;;;26.30;2.90;;;;;;;5.71;100.00;100293.03;4965107;28;20034;-76
2022/04/05 04:25:12;;;;;;;22.23;3.85;;;;;;;5.76;100.00;100295.97;4948403;28;20088;-76
2022/04/05 04:27:37;;;;;;;23.92;3.22;;;;;;;5.75;100.00;100288.94;4968395;28;20103;-76
2022/04/05 04:30:04;;;;;;;27.50;3.30;;;;;;;5.76;100.00;100290.63;4970120;28;20136;-76
2022/04/05 04:32:29;;;;;;;22.38;3.45;;;;;;;5.72;100.00;100289.34;4954157;28;20041;-76
2022/04/05 04:34:55;;;;;;;25.30;3.22;;;;;;;5.68;100.00;100285.41;4936952;28;20142;-76
2022/04/05 04:37:20;;;;;;;28.73;3.47;;;;;;;5.63;100.00;100279.84;4969055;28;20091;-76
2022/04/05 04:39:46;;;;;;;32.85;4.20;;;;;;;5.57;100.00;100280.59;4965339;28;20044;-76
2022/04/05 04:42:12;;;;;;;25.85;3.47;;;;;;;5.46;100.00;100273.94;4937465;28;20058;-74
2022/04/05 04:44:38;;;;;;;32.03;3.22;;;;;;;5.44;100.00;100276.81;4966430;28;20040;-74
2022/04/05 04:47:04;;;;;;;34.33;3.55;;;;;;;5.45;100.00;100278.47;4951438;28;20069;-74
2022/04/05 04:49:29;;;;;;;32.00;4.00;;;;;;;5.47;100.00;100292.44;4964944;28;25586;-74
2022/04/05 04:51:55;;;;;;;25.70;3.88;;;;;;;5.52;100.00;100299.06;4946809;28;20084;-74
2022/04/05 04:54:20;;;;;;;31.33;4.40;;;;;;;5.59;100.00;100294.59;4963463;28;20056;-74
2022/04/05 04:56:46;;;;;;;30.95;3.75;;;;;;;5.63;100.00;100301.22;4949767;28;20041;-74
2022/04/05 04:59:11;;;;;;;24.35;3.92;;;;;;;5.64;100.00;100302.84;4964600;28;20127;-73
2022/04/05 05:01:37;;;;;;;23.35;2.85;;;;;;;5.66;100.00;100296.31;4934175;28;20037;-74
2022/04/05 05:04:02;;;;;;;31.23;4.43;;;;;;;5.67;100.00;100291.78;4945974;28;20054;-75
2022/04/05 05:06:28;;;;;;;27.63;3.55;;;;;;;5.68;100.00;100293.41;4962019;28;20037;-75
2022/04/05 05:08:53;;;;;;;21.58;4.00;;;;;;;5.72;100.00;100308.03;4949691;28;20081;-75
2022/04/05 05:11:19;;;;;;;23.80;3.38;;;;;;;5.72;100.00;100308.91;4963537;28;24288;-75
2022/04/05 05:13:44;;;;;;;37.22;4.53;;;;;;;5.70;100.00;100304.75;4951749;28;20053;-75
2022/04/05 05:16:09;;;;;;;25.42;3.38;;;;;;;5.71;100.00;100319.75;4963949;28;20058;-75
2022/04/05 05:18:37;;;;;;;32.50;3.58;;;;;;;5.68;100.00;100304.94;4936252;28;20037;-75
2022/04/05 05:21:03;;;;;;;26.40;3.42;;;;;;;5.66;100.00;100311.50;4943264;28;20088;-75
2022/04/05 05:23:29;;;;;;;27.60;3.25;;;;;;;5.63;100.00;100301.22;4971103;28;20274;-75
2022/04/05 05:25:54;;;;;;;19.52;3.53;;;;;;;5.63;100.00;100303.88;4953894;28;24195;-74
2022/04/05 05:28:20;;;;;;;35.63;4.35;;;;;;;5.61;100.00;100300.56;4957499;28;20049;-76
2022/04/05 05:30:45;;;;;;;35.13;4.47;;;;;;;5.65;100.00;100307.16;4956642;28;20057;-75
2022/04/05 05:33:11;;;;;;;33.42;4.20;;;;;;;5.61;100.00;100300.56;4968596;28;20042;-75
2022/04/05 05:35:36;;;;;;;24.35;3.22;;;;;;;5.61;100.00;100304.06;4954259;28;23040;-75
2022/04/05 05:38:03;;;;;;;28.48;3.72;;;;;;;5.68;100.00;100301.44;4950550;28;20202;-75
2022/04/05 05:40:29;;;;;;;18.73;3.05;;;;;;;5.74;100.00;100308.69;4968459;28;20050;-75
2022/04/05 05:42:59;;;;;;;27.10;3.63;;;;;;;5.80;100.00;100305.25;4950626;28;20144;-75
2022/04/05 05:45:27;;;;;;;24.30;5.13;;;;;;;5.87;100.00;100322.16;4982725;28;20758;-75
2022/04/05 05:47:52;;;;;;;33.58;5.07;;;;;;;5.94;100.00;100314.22;4953464;28;20119;-75
2022/04/05 05:50:18;;;;;;;22.92;3.78;;;;;;;5.96;100.00;100315.66;4968304;28;20138;-75
2022/04/05 05:52:44;;;;;;;25.60;3.70;;;;;;;6.10;100.00;100326.44;4933755;28;20053;-75
2022/04/05 05:55:12;;;;;;;28.17;4.28;;;;;;;6.15;100.00;100326.69;4966769;28;20038;-74
2022/04/05 05:57:37;;;;;;;36.47;4.18;;;;;;;6.16;100.00;100323.00;4953271;28;20038;-74
2022/04/05 06:00:06;;;;;;;23.48;3.53;;;;;;;6.20;100.00;100324.25;4956925;28;20129;-74
2022/04/05 06:02:32;;;;;;;20.02;3.40;;;;;;;6.26;100.00;100325.31;4955644;28;20045;-74
2022/04/05 06:04:57;;;;;;;20.20;3.75;;;;;;;6.33;100.00;100326.19;4950360;28;20046;-75
2022/04/05 06:07:23;;;;;;;27.98;3.95;;;;;;;6.36;100.00;100329.28;4967521;28;20048;-74
2022/04/05 06:09:48;;;;;;;20.80;4.00;;;;;;;6.48;100.00;100336.75;4950463;28;20068;-75
2022/04/05 06:12:14;;;;;;;28.83;4.25;;;;;;;6.53;100.00;100339.63;4970117;28;20037;-76
2022/04/05 06:14:39;;;;;;;27.23;3.80;;;;;;;6.56;100.00;100333.88;4953607;28;20056;-75
2022/04/05 06:17:04;;;;;;;28.02;3.75;;;;;;;6.59;100.00;100333.50;4971075;28;20047;-75
2022/04/05 06:19:30;;;;;;;30.58;4.22;;;;;;;6.63;100.00;100342.78;4948287;28;20034;-75
2022/04/05 06:21:55;;;;;;;24.20;3.28;;;;;;;6.71;100.00;100337.25;4965736;28;20046;-74
2022/04/05 06:24:21;;;;;;;17.13;3.35;;;;;;;6.76;100.00;100329.44;4973612;28;20512;-76
2022/04/05 06:26:46;;;;;;;29.70;3.78;;;;;;;6.79;100.00;100334.41;4982601;28;21805;-76
2022/04/05 06:29:12;;;;;;;21.05;3.55;;;;;;;6.83;100.00;100341.00;4986011;28;20038;-76
2022/04/05 06:31:37;;;;;;;22.70;4.13;;;;;;;6.85;100.00;100338.97;4952376;28;20088;-76
2022/04/05 06:34:03;;;;;;;20.67;3.40;;;;;;;6.88;100.00;100343.91;4969041;28;20041;-76
2022/04/05 06:36:29;;;;;;;20.95;3.83;;;;;;;6.91;100.00;100346.19;4960339;28;20123;-75
2022/04/05 06:38:54;;;;;;;22.80;3.50;;;;;;;7.01;100.00;100347.66;4967520;28;20520;-74
2022/04/05 06:41:21;;;;;;;19.25;3.35;;;;;;;7.07;100.00;100345.00;4967504;28;20121;-74
2022/04/05 06:43:47;;;;;;;14.18;3.17;;;;;;;7.19;100.00;100342.53;4953945;28;20142;-74
2022/04/05 06:46:14;;;;;;;23.25;3.72;;;;;;;7.20;100.00;100343.41;4969916;28;20030;-74
2022/04/05 06:48:40;;;;;;;21.95;3.70;;;;;;;7.25;100.00;100347.09;4952855;28;20053;-74
2022/04/05 06:51:06;;;;;;;19.33;3.67;;;;;;;7.33;100.00;100341.53;4969907;28;20040;-74
2022/04/05 06:53:31;;;;;;;23.45;3.58;;;;;;;7.33;100.00;100317.41;4948133;28;20043;-74
2022/04/05 06:55:57;;;;;;;15.15;3.17;;;;;;;7.40;100.00;100334.34;4968215;28;20040;-74
2022/04/05 06:58:22;;;;;;;20.73;3.58;;;;;;;7.49;100.00;100328.78;4951100;28;20153;-74
2022/04/05 07:00:47;;;;;;;15.43;3.08;;;;;;;7.56;100.00;100334.97;4951877;28;20049;-74
2022/04/05 07:03:13;;;;;;;27.40;3.55;;;;;;;7.80;100.00;100337.03;4965085;28;20533;-74
2022/04/05 07:05:39;;;;;;;18.90;2.83;;;;;;;7.87;100.00;100335.19;4949140;28;20053;-74
2022/04/05 07:08:04;;;;;;;19.52;2.90;;;;;;;8.05;100.00;100333.72;4935654;28;20030;-74
2022/04/05 07:10:30;;;;;;;19.30;2.95;;;;;;;8.17;100.00;100336.59;4951047;28;20064;-74
2022/04/05 07:12:55;;;;;;;16.40;3.25;;;;;;;8.14;100.00;100337.81;4964982;28;21017;-75
2022/04/05 07:15:21;;;;;;;14.00;2.55;;;;;;;8.11;100.00;100338.25;4923093;28;20049;-74
2022/04/05 07:17:46;;;;;;;15.38;2.53;;;;;;;8.10;100.00;100320.50;4967359;28;20042;-74
2022/04/05 07:20:12;;;;;;;20.02;2.65;;;;;;;8.18;100.00;100319.44;4961381;28;22168;-74
2022/04/05 07:22:44;;;;;;;22.45;2.97;;;;;;;8.32;100.00;100313.84;4948452;28;20073;-73
2022/04/05 07:25:10;;;;;;;16.55;3.42;;;;;;;8.47;100.00;100328.91;4961240;28;20030;-73
2022/04/05 07:27:35;;;;;;;13.20;2.78;;;;;;;8.44;100.00;100324.78;4943845;28;20183;-74
2022/04/05 07:30:01;;;;;;;17.77;2.55;;;;;;;8.42;100.00;100328.69;4961106;28;20061;-74
2022/04/05 07:32:26;;;;;;;16.45;2.60;;;;;;;8.38;100.00;100327.47;4946974;28;20064;-73
2022/04/05 07:34:52;;;;;;;16.42;2.85;;;;;;;8.20;100.00;100331.63;4962581;28;20048;-73
2022/04/05 07:37:17;;;;;;;22.55;3.03;;;;;;;8.14;100.00;100337.81;4947021;28;20144;-73
2022/04/05 07:39:43;;;;;;;28.02;3.00;;;;;;;8.05;100.00;100329.19;4959659;28;20041;-74
2022/04/05 07:42:08;;;;;;;20.83;3.53;;;;;;;8.06;100.00;100335.38;4959973;28;20043;-74
2022/04/05 07:44:34;;;;;;;15.68;2.83;;;;;;;8.09;100.00;100334.94;4943906;28;21341;-74
2022/04/05 07:47:00;;;;;;;17.73;3.38;;;;;;;8.20;100.00;100337.00;4960435;28;20037;-74
2022/04/05 07:49:25;;;;;;;18.35;3.00;;;;;;;8.23;100.00;100338.44;4931668;28;20781;-74
2022/04/05 07:51:51;;;;;;;25.65;3.13;;;;;;;8.15;100.00;100339.50;4960795;28;20044;-74
2022/04/05 07:54:16;;;;;;;13.75;3.25;;;;;;;8.21;100.00;100337.81;4944696;28;20149;-74
2022/04/05 07:56:42;;;;;;;13.38;2.72;;;;;;;8.17;100.00;100337.41;4961123;28;20037;-74
2022/04/05 07:59:07;;;;;;;13.27;2.55;;;;;;;8.13;100.00;100336.19;4941779;28;20042;-75
2022/04/05 08:01:32;;;;;;;20.15;3.65;;;;;;;8.07;100.00;100339.69;4964411;28;20395;-75
2022/04/05 08:03:58;;;;;;;15.45;3.28;;;;;;;8.13;100.00;100341.53;4976463;28;20037;-75
2022/04/05 08:06:25;;;;;;;10.73;3.70;;;;;;;8.06;100.00;100346.09;4963712;28;20495;-75
2022/04/05 08:08:51;;;;;;;16.35;3.47;;;;;;;7.98;100.00;100343.63;4949237;28;20424;-75
2022/04/05 08:11:16;;;;;;;19.88;3.35;;;;;;;7.93;100.00;100340.75;4948241;28;20053;-74
2022/04/05 08:13:42;;;;;;;16.83;3.45;;;;;;;7.99;100.00;100334.56;4965576;28;20037;-74
2022/04/05 08:16:07;;;;;;;14.60;3.28;;;;;;;8.06;100.00;100335.38;4935402;28;20053;-75
2022/04/05 08:18:33;;;;;;;17.20;3.03;;;;;;;8.20;100.00;100334.31;4970485;28;22299;-75
2022/04/05 08:20:58;;;;;;;21.70;3.40;;;;;;;8.17;100.00;100321.31;4970403;28;20037;-75
2022/04/05 08:23:24;;;;;;;17.48;3.85;;;;;;;8.17;100.00;100328.53;4941021;28;23184;-75
2022/04/05 08:25:49;;;;;;;16.85;3.42;;;;;;;8.31;100.00;100328.28;4976143;28;22447;-76
2022/04/05 08:28:15;;;;;;;14.30;3.67;;;;;;;8.38;100.00;100332.84;4960915;28;20066;-76
2022/04/05 08:30:40;;;;;;;15.57;3.58;;;;;;;8.52;100.00;100335.28;4976236;28;20033;-75
2022/04/05 08:33:07;;;;;;;15.00;3.33;;;;;;;8.64;100.00;100338.16;4945630;28;20200;-73
2022/04/05 08:35:33;;;;;;;15.18;3.35;;;;;;;8.71;100.00;100336.25;4971721;28;20037;-76
2022/04/05 08:37:58;;;;;;;15.35;2.75;;;;;;;8.70;100.00;100336.44;4966493;28;21038;-75
2022/04/05 08:40:26;;;;;;;14.95;3.08;;;;;;;8.67;100.00;100336.88;4966424;28;20037;-74
2022/04/05 08:42:53;;;;;;;12.57;2.67;;;;;;;8.64;100.00;100345.38;4968876;28;20160;-74
2022/04/05 08:45:20;;;;;;;16.25;3.33;;;;;;;8.60;100.00;100331.56;4959770;28;20061;-73
2022/04/05 08:47:54;;;;;;;12.88;2.75;;;;;;;8.59;100.00;100325.34;4985294;28;20131;-74
2022/04/05 08:50:24;;;;;;;17.92;3.47;;;;;;;8.63;100.00;100325.75;4959861;28;20058;-76
2022/04/05 08:52:50;;;;;;;11.32;3.10;;;;;;;8.83;100.00;100323.78;4970682;28;20033;-75
2022/04/05 08:55:16;;;;;;;15.40;3.20;;;;;;;8.99;100.00;100327.84;4952036;28;20045;-76
2022/04/05 08:57:42;;;;;;;19.95;3.03;;;;;;;8.97;100.00;100331.78;4964903;28;20065;-75
2022/04/05 09:00:09;;;;;;;20.85;3.17;;;;;;;8.90;100.00;100325.63;4955888;28;20068;-76
2022/04/05 09:02:35;;;;;;;17.40;3.28;;;;;;;8.83;100.00;100326.47;5004918;28;20030;-76
2022/04/05 09:05:01;;;;;;;19.42;3.53;;;;;;;8.92;100.00;100328.94;5019746;28;20048;-76
2022/04/05 09:07:35;;;;;;;21.48;4.45;;;;;;;8.98;100.00;100333.44;4987552;28;20046;-75
2022/04/05 09:10:13;;;;;;;25.73;4.07;;;;;;;9.02;100.00;100326.59;5003185;28;20087;-75
2022/04/05 09:12:42;;;;;;;16.77;3.55;;;;;;;8.97;100.00;100329.09;4980411;28;20045;-75
2022/04/05 09:15:09;;;;;;;21.38;3.80;;;;;;;9.18;100.00;100323.41;5007005;28;20081;-75
2022/04/05 09:17:41;;;;;;;14.27;2.92;;;;;;;9.68;100.00;100322.63;4996983;28;20049;-75
2022/04/05 09:20:07;;;;;;;24.75;3.92;;;;;;;10.06;100.00;100329.75;5005110;28;21117;-75
2022/04/05 09:22:34;;;;;;;16.00;3.20;;;;;;;10.31;100.00;100327.84;4992069;28;20115;-72
2022/04/05 09:25:08;;;;;;;10.65;2.53;;;;;;;10.46;100.00;100314.03;5010497;28;20021;-76
2022/04/05 09:27:57;;;;;;;12.93;3.05;;;;;;;10.43;100.00;100325.25;4984221;28;20058;-76
2022/04/05 09:30:28;;;;;;;13.23;3.30;;;;;;;10.31;100.00;100322.47;4997234;28;20065;-76
2022/04/05 09:32:55;;;;;;;12.18;2.92;;;;;;;10.05;100.00;100328.94;5007829;28;20053;-76
2022/04/05 09:35:55;;;;;;;10.23;2.75;;;;;;;9.67;100.00;100327.19;4989157;28;23068;-76
2022/04/05 09:38:20;;;;;;;7.45;2.33;;;;;;;9.64;100.00;100327.63;4992701;28;20091;-76
2022/04/05 09:40:52;;;;;;;16.70;3.45;;;;;;;9.59;100.00;100319.41;4986761;28;20050;-75
2022/04/05 09:43:18;;;;;;;15.95;2.92;;;;;;;9.48;100.00;100328.19;4998071;28;20034;-75
2022/04/05 09:45:46;;;;;;;11.60;3.15;;;;;;;9.43;100.00;100330.69;5001773;28;20064;-75
2022/04/05 09:48:12;;;;;;;14.57;3.40;;;;;;;9.31;100.00;100334.06;5008852;28;20099;-75
2022/04/05 09:51:00;;;;;;;14.70;3.10;;;;;;;9.29;100.00;100333.44;5003675;28;20041;-78
2022/04/05 09:53:31;;;;;;;18.58;3.60;;;;;;;9.28;100.00;100339.88;4992990;28;20045;-76
2022/04/05 09:56:07;;;;;;;16.52;4.03;;;;;;;9.42;100.00;100340.63;4988488;28;20048;-77
2022/04/05 09:58:33;;;;;;;6.43;1.92;;;;;;;9.39;100.00;100340.22;5006240;28;20032;-76
2022/04/05 10:01:08;;;;;;;9.23;2.13;;;;;;;9.12;100.00;100339.56;4995578;28;20054;-77
2022/04/05 10:03:40;;;;;;;7.47;2.42;;;;;;;8.99;100.00;100329.72;4990899;28;20079;-78
2022/04/05 10:06:06;;;;;;;12.07;2.88;;;;;;;8.86;100.00;100329.78;4991167;28;20246;-77
2022/04/05 10:08:34;;;;;;;11.48;2.97;;;;;;;8.92;100.00;100328.94;4989927;28;20060;-78
2022/04/05 10:11:00;;;;;;;8.85;2.97;;;;;;;8.94;100.00;100335.72;4974856;28;20064;-75
2022/04/05 10:13:26;;;;;;;11.13;4.13;;;;;;;8.81;100.00;100322.38;4967591;28;20058;-75
2022/04/05 10:15:53;;;;;;;11.52;2.97;;;;;;;8.80;100.00;100336.81;4990968;28;20531;-78
2022/04/05 10:18:20;;;;;;;9.43;2.97;;;;;;;8.79;100.00;100330.63;4970317;28;20670;-78
2022/04/05 10:20:49;;;;;;;13.02;2.95;;;;;;;8.87;100.00;100326.06;4991912;28;20034;-76
2022/04/05 10:23:22;;;;;;;11.30;2.20;;;;;;;8.81;100.00;100333.13;4968080;28;20053;-76
2022/04/05 10:25:51;;;;;;;13.10;2.80;;;;;;;8.82;100.00;100329.41;4987779;28;20029;-78
2022/04/05 10:28:19;;;;;;;5.18;2.15;;;;;;;8.78;100.00;100322.81;5001903;28;20292;-76
2022/04/05 10:30:52;;;;;;;9.68;2.63;;;;;;;8.70;100.00;100326.53;4981356;28;20061;-76
2022/04/05 10:33:39;;;;;;;8.65;2.60;;;;;;;8.71;100.00;100330.88;4989500;28;20038;-77
2022/04/05 10:36:06;;;;;;;7.65;2.38;;;;;;;8.69;100.00;100337.50;4978222;28;20061;-77
2022/04/05 10:38:31;;;;;;;8.00;2.65;;;;;;;8.65;100.00;100318.31;5007772;28;20030;-77
2022/04/05 10:41:14;;;;;;;9.55;2.75;;;;;;;8.68;100.00;100322.44;4980206;28;20148;-77
2022/04/05 10:43:40;;;;;;;12.23;2.65;;;;;;;8.71;100.00;100322.84;4978087;28;20076;-76
2022/04/05 10:46:08;;;;;;;6.53;2.53;;;;;;;8.65;100.00;100314.81;4953286;28;23656;-73
2022/04/05 10:48:34;;;;;;;5.57;1.92;;;;;;;8.68;100.00;100317.88;4965334;28;20036;-73
2022/04/05 10:50:59;;;;;;;7.38;2.17;;;;;;;8.60;100.00;100312.75;4952568;28;20386;-73
2022/04/05 10:53:41;;;;;;;5.60;2.45;;;;;;;8.53;100.00;100309.25;4965218;28;20052;-73
2022/04/05 10:56:10;;;;;;;4.60;2.10;;;;;;;8.53;100.00;100314.63;4955096;28;20064;-77
2022/04/05 10:58:52;;;;;;;5.00;2.00;;;;;;;8.48;100.00;100311.75;4969427;28;20104;-77
2022/04/05 11:01:22;;;;;;;6.05;2.40;;;;;;;8.50;100.00;100305.16;4963961;28;20409;-78
2022/04/05 11:04:29;;;;;;;6.45;2.38;;;;;;;9.10;100.00;100302.16;4978105;28;20428;-78
2022/04/05 11:07:05;;;;;;;4.35;2.30;;;;;;;9.82;100.00;100304.50;4914208;28;20076;-78
2022/04/05 11:09:39;;;;;;;5.47;1.83;;;;;;;10.38;100.00;100303.56;4968372;28;20065;-78
2022/04/05 11:12:09;;;;;;;3.40;1.88;;;;;;;10.38;100.00;100295.47;4970056;28;20033;-78
2022/04/05 11:14:49;;;;;;;3.45;1.55;;;;;;;10.28;100.00;100306.75;4952425;28;21076;-77
2022/04/05 11:17:16;;;;;;;2.42;1.13;;;;;;;10.42;100.00;100297.47;4965481;28;20064;-76